Aérodrome :
LOGIN :

S'inscrire | Disclaimer

   EN    FR    IT 

 










Légende :    VFR   VFR Marginal   IFR   IFR Intensif   IFR Très Intensif
Visi : 
Plafond : 
>= 8 km
>= 3000ft
5 à 8 km
1000 à 3000 ft
1500m à 5 km
500 à 1000 ft
800 à 1500m
200 à 500 ft
< 800m
< 200 ft
Symboles :   Orages  Brouillard  Fortes neiges  Fortes précipitations  Vent > 20 kt
SIGMETs :   Divers  Orages  Givrage  Turbulence  Onde Orograph.  Cendres Volcan.






- Altitude de l'aérodrome : 1197 ft
- Code IATA : SPM


ETAD - Spangdahlem Ab

DERNIER METAR :
  • 180311Z AUTO 23005KT 9999 SCT008 SCT013 BKN021 01/01 A3021 RMK AO2 CIG 008V021 SLP234 $

METARs EXPIRÉS :
  • 180256Z AUTO 24005KT 9999 OVC008 01/01 A3021 RMK AO2 SLP234 T00140008 52012 $
  • 180232Z AUTO 23006KT 9999 OVC008 02/01 A3020 RMK AO2 SLP231 $
  • 180217Z AUTO 22005KT 9999 BKN009 02/01 A3020 RMK AO2 SLP231 $
  • 180202Z AUTO 22006KT 9999 FEW010 01/01 A3020 RMK AO2 SLP231 $
  • 180156Z AUTO 22007KT 9999 CLR 01/00 A3019 RMK AO2 SLP227 T00100004 $
  • 180056Z AUTO 22007KT 9999 CLR 02/02 A3018 RMK AO2 SLP224 T00210015 $

TAF TAF ETAD
Valide du 17 à 21h jusqu'au 19 à 03h UTC


172100Z 1721/1903 21009KT 9999 SCT020 BKN050 OVC060 QNH3012INS
BECMG 1809/1810 24010G15KT 9999 SCT020 SCT040 QNH3027INS
BECMG 1814/1815 28006KT 9999 SCT020 QNH3030INS TX04/1813Z TN00/1820Z LAST NO AMDS AFT 1721 NEXT 1811



MET'MAP, la Météo Aéronautique d'un coup d'oeil ! - Copyright ORBIFLY Décembre 2007 - Disclaimer

ORBIFLY MET'MAP TEAM :

Programmation & Développement : Alexandra Zaïnal
Sur une idée originale de : Baudouin d'Aumeries
Assistance à la programmation : Marc-Olivier Méhu
Soutien technique & logistique : Manuel Goepfert

Contact : metmap@orbifly.com




SOURCES & CREDITS :

   NOAA